sensor_id;sensor_type;location;lat;lon;timestamp;P1;durP1;ratioP1;P2;durP2;ratioP2
32894;SDS011;19251;49.484;8.260;2023-01-19T00:02:33;10.40;;;6.27;;
32894;SDS011;19251;49.484;8.260;2023-01-19T00:07:35;10.48;;;5.62;;
32894;SDS011;19251;49.484;8.260;2023-01-19T00:12:37;11.77;;;5.75;;
32894;SDS011;19251;49.484;8.260;2023-01-19T00:22:42;11.65;;;5.65;;
32894;SDS011;19251;49.484;8.260;2023-01-19T00:27:45;16.35;;;6.43;;
32894;SDS011;19251;49.484;8.260;2023-01-19T00:32:49;14.70;;;7.47;;
32894;SDS011;19251;49.484;8.260;2023-01-19T00:42:54;12.20;;;6.33;;
32894;SDS011;19251;49.484;8.260;2023-01-19T00:52:58;11.40;;;5.43;;
32894;SDS011;19251;49.484;8.260;2023-01-19T00:58:04;11.43;;;6.60;;
32894;SDS011;19251;49.484;8.260;2023-01-19T01:03:08;12.97;;;6.77;;
32894;SDS011;19251;49.484;8.260;2023-01-19T01:08:10;11.83;;;4.80;;
32894;SDS011;19251;49.484;8.260;2023-01-19T01:18:23;9.57;;;5.17;;
32894;SDS011;19251;49.484;8.260;2023-01-19T01:23:26;10.30;;;5.03;;
32894;SDS011;19251;49.484;8.260;2023-01-19T01:33:31;8.97;;;5.73;;
32894;SDS011;19251;49.484;8.260;2023-01-19T01:38:42;12.10;;;5.60;;
32894;SDS011;19251;49.484;8.260;2023-01-19T01:48:53;7.93;;;4.57;;
32894;SDS011;19251;49.484;8.260;2023-01-19T01:54:28;13.17;;;5.13;;
32894;SDS011;19251;49.484;8.260;2023-01-19T01:59:35;17.30;;;5.20;;
32894;SDS011;19251;49.484;8.260;2023-01-19T02:04:52;12.07;;;5.43;;
32894;SDS011;19251;49.484;8.260;2023-01-19T02:09:58;9.70;;;5.60;;
32894;SDS011;19251;49.484;8.260;2023-01-19T02:15:19;11.77;;;6.43;;
32894;SDS011;19251;49.484;8.260;2023-01-19T02:20:21;10.20;;;5.97;;
32894;SDS011;19251;49.484;8.260;2023-01-19T02:25:28;14.07;;;6.47;;
32894;SDS011;19251;49.484;8.260;2023-01-19T02:30:31;21.83;;;6.07;;
32894;SDS011;19251;49.484;8.260;2023-01-19T02:35:34;11.57;;;7.00;;
32894;SDS011;19251;49.484;8.260;2023-01-19T02:40:39;13.43;;;5.93;;
32894;SDS011;19251;49.484;8.260;2023-01-19T02:45:43;9.23;;;5.37;;
32894;SDS011;19251;49.484;8.260;2023-01-19T02:50:48;10.10;;;6.17;;
32894;SDS011;19251;49.484;8.260;2023-01-19T03:07:20;12.07;;;6.13;;
32894;SDS011;19251;49.484;8.260;2023-01-19T03:17:22;12.67;;;7.57;;
32894;SDS011;19251;49.484;8.260;2023-01-19T03:22:27;12.10;;;6.87;;
32894;SDS011;19251;49.484;8.260;2023-01-19T03:27:31;14.40;;;5.87;;
32894;SDS011;19251;49.484;8.260;2023-01-19T03:32:42;11.80;;;6.00;;
32894;SDS011;19251;49.484;8.260;2023-01-19T03:37:59;11.23;;;5.93;;
32894;SDS011;19251;49.484;8.260;2023-01-19T03:43:09;8.30;;;5.00;;
32894;SDS011;19251;49.484;8.260;2023-01-19T03:48:13;16.07;;;6.43;;
32894;SDS011;19251;49.484;8.260;2023-01-19T03:58:17;12.90;;;7.30;;
32894;SDS011;19251;49.484;8.260;2023-01-19T04:08:22;12.80;;;6.53;;
32894;SDS011;19251;49.484;8.260;2023-01-19T04:13:24;14.18;;;7.30;;
32894;SDS011;19251;49.484;8.260;2023-01-19T04:18:28;16.60;;;8.33;;
32894;SDS011;19251;49.484;8.260;2023-01-19T04:23:34;12.90;;;6.70;;
32894;SDS011;19251;49.484;8.260;2023-01-19T04:33:38;12.67;;;6.57;;
32894;SDS011;19251;49.484;8.260;2023-01-19T04:43:43;14.48;;;7.50;;
32894;SDS011;19251;49.484;8.260;2023-01-19T04:48:45;14.30;;;8.20;;
32894;SDS011;19251;49.484;8.260;2023-01-19T04:53:47;12.70;;;7.78;;
32894;SDS011;19251;49.484;8.260;2023-01-19T04:58:49;14.05;;;7.55;;
32894;SDS011;19251;49.484;8.260;2023-01-19T05:03:51;15.07;;;7.47;;
32894;SDS011;19251;49.484;8.260;2023-01-19T05:08:53;14.55;;;8.35;;
32894;SDS011;19251;49.484;8.260;2023-01-19T05:13:55;10.50;;;6.68;;
32894;SDS011;19251;49.484;8.260;2023-01-19T05:18:57;10.80;;;6.30;;
32894;SDS011;19251;49.484;8.260;2023-01-19T05:24:00;11.50;;;7.27;;
32894;SDS011;19251;49.484;8.260;2023-01-19T05:29:02;15.52;;;7.43;;
32894;SDS011;19251;49.484;8.260;2023-01-19T05:39:06;12.13;;;7.40;;
32894;SDS011;19251;49.484;8.260;2023-01-19T05:44:09;11.87;;;7.17;;
32894;SDS011;19251;49.484;8.260;2023-01-19T05:49:11;12.50;;;7.67;;
32894;SDS011;19251;49.484;8.260;2023-01-19T05:59:16;13.80;;;7.60;;
32894;SDS011;19251;49.484;8.260;2023-01-19T06:04:25;10.77;;;7.20;;
32894;SDS011;19251;49.484;8.260;2023-01-19T06:09:27;14.83;;;7.87;;
32894;SDS011;19251;49.484;8.260;2023-01-19T06:14:29;14.17;;;7.53;;
32894;SDS011;19251;49.484;8.260;2023-01-19T06:19:33;13.67;;;7.40;;
32894;SDS011;19251;49.484;8.260;2023-01-19T06:24:35;12.47;;;7.60;;
32894;SDS011;19251;49.484;8.260;2023-01-19T06:29:38;10.93;;;6.60;;
32894;SDS011;19251;49.484;8.260;2023-01-19T06:34:40;13.77;;;8.07;;
32894;SDS011;19251;49.484;8.260;2023-01-19T06:39:44;20.90;;;7.70;;
32894;SDS011;19251;49.484;8.260;2023-01-19T06:44:46;19.95;;;9.57;;
32894;SDS011;19251;49.484;8.260;2023-01-19T06:54:50;24.20;;;10.85;;
32894;SDS011;19251;49.484;8.260;2023-01-19T06:59:52;17.40;;;8.95;;
32894;SDS011;19251;49.484;8.260;2023-01-19T07:04:55;13.05;;;8.35;;
32894;SDS011;19251;49.484;8.260;2023-01-19T07:09:58;17.00;;;8.65;;
32894;SDS011;19251;49.484;8.260;2023-01-19T07:15:00;17.60;;;9.55;;
32894;SDS011;19251;49.484;8.260;2023-01-19T07:20:02;19.23;;;9.25;;
32894;SDS011;19251;49.484;8.260;2023-01-19T07:25:04;16.65;;;9.35;;
32894;SDS011;19251;49.484;8.260;2023-01-19T07:30:07;12.80;;;8.03;;
32894;SDS011;19251;49.484;8.260;2023-01-19T07:35:10;21.35;;;9.05;;
32894;SDS011;19251;49.484;8.260;2023-01-19T07:45:17;14.57;;;8.40;;
32894;SDS011;19251;49.484;8.260;2023-01-19T07:50:21;14.73;;;8.17;;
32894;SDS011;19251;49.484;8.260;2023-01-19T07:55:26;10.57;;;7.10;;
32894;SDS011;19251;49.484;8.260;2023-01-19T08:00:28;13.13;;;8.68;;
32894;SDS011;19251;49.484;8.260;2023-01-19T08:05:30;19.73;;;11.73;;
32894;SDS011;19251;49.484;8.260;2023-01-19T08:10:34;21.50;;;11.57;;
32894;SDS011;19251;49.484;8.260;2023-01-19T08:15:36;21.98;;;13.35;;
32894;SDS011;19251;49.484;8.260;2023-01-19T08:20:38;22.08;;;13.93;;
32894;SDS011;19251;49.484;8.260;2023-01-19T08:25:41;16.15;;;10.65;;
32894;SDS011;19251;49.484;8.260;2023-01-19T08:30:47;20.87;;;12.50;;
32894;SDS011;19251;49.484;8.260;2023-01-19T08:35:55;15.53;;;9.13;;
32894;SDS011;19251;49.484;8.260;2023-01-19T08:40:57;19.92;;;12.27;;
32894;SDS011;19251;49.484;8.260;2023-01-19T08:45:59;25.05;;;12.32;;
32894;SDS011;19251;49.484;8.260;2023-01-19T08:51:01;19.10;;;10.90;;
32894;SDS011;19251;49.484;8.260;2023-01-19T08:56:03;19.65;;;10.77;;
32894;SDS011;19251;49.484;8.260;2023-01-19T09:01:09;18.20;;;12.33;;
32894;SDS011;19251;49.484;8.260;2023-01-19T09:06:15;21.43;;;12.00;;
32894;SDS011;19251;49.484;8.260;2023-01-19T09:11:19;26.20;;;12.10;;
32894;SDS011;19251;49.484;8.260;2023-01-19T09:16:21;25.10;;;13.18;;
32894;SDS011;19251;49.484;8.260;2023-01-19T09:21:23;21.87;;;11.27;;
32894;SDS011;19251;49.484;8.260;2023-01-19T09:26:25;22.02;;;12.35;;
32894;SDS011;19251;49.484;8.260;2023-01-19T09:31:28;17.43;;;10.47;;
32894;SDS011;19251;49.484;8.260;2023-01-19T09:36:30;16.75;;;10.25;;
32894;SDS011;19251;49.484;8.260;2023-01-19T09:41:34;17.17;;;10.68;;
32894;SDS011;19251;49.484;8.260;2023-01-19T09:46:38;19.65;;;9.30;;
32894;SDS011;19251;49.484;8.260;2023-01-19T09:51:45;15.75;;;9.65;;
32894;SDS011;19251;49.484;8.260;2023-01-19T09:56:51;17.30;;;10.00;;
32894;SDS011;19251;49.484;8.260;2023-01-19T10:07:24;17.45;;;10.60;;
32894;SDS011;19251;49.484;8.260;2023-01-19T10:12:46;14.20;;;9.60;;
32894;SDS011;19251;49.484;8.260;2023-01-19T10:18:25;18.40;;;10.83;;
32894;SDS011;19251;49.484;8.260;2023-01-19T10:28:56;12.90;;;8.47;;
32894;SDS011;19251;49.484;8.260;2023-01-19T10:34:03;15.60;;;8.27;;
32894;SDS011;19251;49.484;8.260;2023-01-19T10:39:06;13.68;;;8.30;;
32894;SDS011;19251;49.484;8.260;2023-01-19T10:44:12;14.60;;;7.95;;
32894;SDS011;19251;49.484;8.260;2023-01-19T10:54:41;9.20;;;3.60;;
32894;SDS011;19251;49.484;8.260;2023-01-19T10:59:48;7.80;;;3.05;;
32894;SDS011;19251;49.484;8.260;2023-01-19T11:05:01;6.10;;;3.65;;
32894;SDS011;19251;49.484;8.260;2023-01-19T11:10:30;7.00;;;3.30;;
32894;SDS011;19251;49.484;8.260;2023-01-19T11:15:41;4.60;;;2.85;;
32894;SDS011;19251;49.484;8.260;2023-01-19T11:20:49;8.10;;;3.60;;
32894;SDS011;19251;49.484;8.260;2023-01-19T11:25:55;7.60;;;3.10;;
32894;SDS011;19251;49.484;8.260;2023-01-19T11:36:04;3.85;;;2.45;;
32894;SDS011;19251;49.484;8.260;2023-01-19T11:41:28;11.95;;;3.25;;
32894;SDS011;19251;49.484;8.260;2023-01-19T11:46:36;3.80;;;2.40;;
32894;SDS011;19251;49.484;8.260;2023-01-19T11:51:45;3.95;;;2.00;;
32894;SDS011;19251;49.484;8.260;2023-01-19T11:56:59;3.60;;;2.40;;
32894;SDS011;19251;49.484;8.260;2023-01-19T12:02:03;2.95;;;2.15;;
32894;SDS011;19251;49.484;8.260;2023-01-19T12:07:22;4.75;;;2.25;;
32894;SDS011;19251;49.484;8.260;2023-01-19T12:12:30;3.60;;;2.25;;
32894;SDS011;19251;49.484;8.260;2023-01-19T12:17:37;4.35;;;2.80;;
32894;SDS011;19251;49.484;8.260;2023-01-19T12:22:47;4.90;;;2.20;;
32894;SDS011;19251;49.484;8.260;2023-01-19T12:28:00;5.75;;;2.75;;
32894;SDS011;19251;49.484;8.260;2023-01-19T12:38:48;9.23;;;2.73;;
32894;SDS011;19251;49.484;8.260;2023-01-19T12:54:42;6.40;;;3.00;;
32894;SDS011;19251;49.484;8.260;2023-01-19T12:59:54;6.78;;;2.83;;
32894;SDS011;19251;49.484;8.260;2023-01-19T13:15:50;9.10;;;3.60;;
32894;SDS011;19251;49.484;8.260;2023-01-19T13:21:05;5.07;;;2.70;;
32894;SDS011;19251;49.484;8.260;2023-01-19T13:26:11;7.33;;;3.03;;
32894;SDS011;19251;49.484;8.260;2023-01-19T13:31:16;8.15;;;3.95;;
32894;SDS011;19251;49.484;8.260;2023-01-19T13:36:23;10.85;;;4.35;;
32894;SDS011;19251;49.484;8.260;2023-01-19T13:41:31;6.75;;;3.25;;
32894;SDS011;19251;49.484;8.260;2023-01-19T13:46:38;7.35;;;3.15;;
32894;SDS011;19251;49.484;8.260;2023-01-19T13:51:41;6.60;;;2.93;;
32894;SDS011;19251;49.484;8.260;2023-01-19T13:56:47;4.45;;;2.78;;
32894;SDS011;19251;49.484;8.260;2023-01-19T14:01:52;6.00;;;3.25;;
32894;SDS011;19251;49.484;8.260;2023-01-19T14:06:55;8.35;;;3.70;;
32894;SDS011;19251;49.484;8.260;2023-01-19T14:27:39;9.05;;;4.20;;
32894;SDS011;19251;49.484;8.260;2023-01-19T14:32:44;5.62;;;2.95;;
32894;SDS011;19251;49.484;8.260;2023-01-19T14:37:48;5.65;;;3.10;;
32894;SDS011;19251;49.484;8.260;2023-01-19T14:42:53;5.45;;;3.30;;
32894;SDS011;19251;49.484;8.260;2023-01-19T14:47:59;5.80;;;3.30;;
32894;SDS011;19251;49.484;8.260;2023-01-19T14:53:13;6.45;;;3.80;;
32894;SDS011;19251;49.484;8.260;2023-01-19T14:58:29;8.55;;;3.20;;
32894;SDS011;19251;49.484;8.260;2023-01-19T15:03:34;7.45;;;4.20;;
32894;SDS011;19251;49.484;8.260;2023-01-19T15:08:46;4.75;;;2.85;;
32894;SDS011;19251;49.484;8.260;2023-01-19T15:13:51;7.70;;;3.90;;
32894;SDS011;19251;49.484;8.260;2023-01-19T15:18:53;4.75;;;2.80;;
32894;SDS011;19251;49.484;8.260;2023-01-19T15:23:56;5.87;;;3.17;;
32894;SDS011;19251;49.484;8.260;2023-01-19T15:28:59;8.05;;;3.65;;
32894;SDS011;19251;49.484;8.260;2023-01-19T15:34:01;4.47;;;3.00;;
32894;SDS011;19251;49.484;8.260;2023-01-19T15:39:03;3.15;;;2.42;;
32894;SDS011;19251;49.484;8.260;2023-01-19T15:44:05;6.12;;;2.70;;
32894;SDS011;19251;49.484;8.260;2023-01-19T15:49:10;6.60;;;3.30;;
32894;SDS011;19251;49.484;8.260;2023-01-19T15:54:13;3.08;;;2.30;;
32894;SDS011;19251;49.484;8.260;2023-01-19T15:59:15;5.35;;;2.80;;
32894;SDS011;19251;49.484;8.260;2023-01-19T16:04:17;6.75;;;5.20;;
32894;SDS011;19251;49.484;8.260;2023-01-19T16:09:20;6.75;;;3.08;;
32894;SDS011;19251;49.484;8.260;2023-01-19T16:19:24;10.13;;;3.50;;
32894;SDS011;19251;49.484;8.260;2023-01-19T16:24:26;8.63;;;2.45;;
32894;SDS011;19251;49.484;8.260;2023-01-19T16:29:29;5.43;;;3.12;;
32894;SDS011;19251;49.484;8.260;2023-01-19T16:34:31;5.55;;;1.60;;
32894;SDS011;19251;49.484;8.260;2023-01-19T16:39:34;5.95;;;1.65;;
32894;SDS011;19251;49.484;8.260;2023-01-19T16:49:38;3.63;;;2.23;;
32894;SDS011;19251;49.484;8.260;2023-01-19T16:54:41;8.88;;;4.32;;
32894;SDS011;19251;49.484;8.260;2023-01-19T16:59:44;6.57;;;3.03;;
32894;SDS011;19251;49.484;8.260;2023-01-19T17:09:48;3.55;;;2.45;;
32894;SDS011;19251;49.484;8.260;2023-01-19T17:14:50;5.10;;;2.37;;
32894;SDS011;19251;49.484;8.260;2023-01-19T17:19:53;4.57;;;2.30;;
32894;SDS011;19251;49.484;8.260;2023-01-19T17:24:55;4.65;;;2.50;;
32894;SDS011;19251;49.484;8.260;2023-01-19T17:29:57;7.43;;;3.25;;
32894;SDS011;19251;49.484;8.260;2023-01-19T17:34:59;6.62;;;2.35;;
32894;SDS011;19251;49.484;8.260;2023-01-19T17:40:01;5.68;;;3.15;;
32894;SDS011;19251;49.484;8.260;2023-01-19T17:45:04;7.17;;;2.73;;
32894;SDS011;19251;49.484;8.260;2023-01-19T17:50:07;8.75;;;2.70;;
32894;SDS011;19251;49.484;8.260;2023-01-19T17:55:10;3.95;;;2.70;;
32894;SDS011;19251;49.484;8.260;2023-01-19T18:05:15;7.57;;;4.15;;
32894;SDS011;19251;49.484;8.260;2023-01-19T18:10:18;10.20;;;4.65;;
32894;SDS011;19251;49.484;8.260;2023-01-19T18:15:20;6.75;;;3.95;;
32894;SDS011;19251;49.484;8.260;2023-01-19T18:20:22;14.77;;;6.90;;
32894;SDS011;19251;49.484;8.260;2023-01-19T18:25:24;15.77;;;6.78;;
32894;SDS011;19251;49.484;8.260;2023-01-19T18:30:26;14.35;;;6.47;;
32894;SDS011;19251;49.484;8.260;2023-01-19T18:35:29;13.27;;;6.57;;
32894;SDS011;19251;49.484;8.260;2023-01-19T18:40:32;14.98;;;7.60;;
32894;SDS011;19251;49.484;8.260;2023-01-19T18:45:34;15.13;;;6.53;;
32894;SDS011;19251;49.484;8.260;2023-01-19T18:50:38;12.23;;;5.87;;
32894;SDS011;19251;49.484;8.260;2023-01-19T18:55:54;10.48;;;5.37;;
32894;SDS011;19251;49.484;8.260;2023-01-19T19:00:58;6.67;;;4.50;;
32894;SDS011;19251;49.484;8.260;2023-01-19T19:06:02;9.27;;;4.87;;
32894;SDS011;19251;49.484;8.260;2023-01-19T19:11:07;7.20;;;4.95;;
32894;SDS011;19251;49.484;8.260;2023-01-19T19:16:11;16.65;;;6.85;;
32894;SDS011;19251;49.484;8.260;2023-01-19T19:21:14;7.85;;;4.50;;
32894;SDS011;19251;49.484;8.260;2023-01-19T19:26:18;11.70;;;6.33;;
32894;SDS011;19251;49.484;8.260;2023-01-19T19:36:23;9.07;;;5.93;;
32894;SDS011;19251;49.484;8.260;2023-01-19T19:41:27;8.35;;;5.15;;
32894;SDS011;19251;49.484;8.260;2023-01-19T19:46:30;9.60;;;5.15;;
32894;SDS011;19251;49.484;8.260;2023-01-19T19:51:32;12.77;;;6.07;;
32894;SDS011;19251;49.484;8.260;2023-01-19T19:56:35;8.93;;;4.72;;
32894;SDS011;19251;49.484;8.260;2023-01-19T20:01:37;14.82;;;5.25;;
32894;SDS011;19251;49.484;8.260;2023-01-19T20:06:40;9.93;;;5.45;;
32894;SDS011;19251;49.484;8.260;2023-01-19T20:11:45;9.90;;;5.80;;
32894;SDS011;19251;49.484;8.260;2023-01-19T20:16:49;14.05;;;8.60;;
32894;SDS011;19251;49.484;8.260;2023-01-19T20:21:51;11.52;;;5.97;;
32894;SDS011;19251;49.484;8.260;2023-01-19T20:26:54;8.45;;;5.30;;
32894;SDS011;19251;49.484;8.260;2023-01-19T20:31:57;8.95;;;5.35;;
32894;SDS011;19251;49.484;8.260;2023-01-19T20:37:00;13.18;;;6.28;;
32894;SDS011;19251;49.484;8.260;2023-01-19T20:42:03;13.60;;;5.55;;
32894;SDS011;19251;49.484;8.260;2023-01-19T20:47:07;11.15;;;6.40;;
32894;SDS011;19251;49.484;8.260;2023-01-19T20:52:10;11.70;;;6.65;;
32894;SDS011;19251;49.484;8.260;2023-01-19T20:57:12;11.75;;;5.50;;
32894;SDS011;19251;49.484;8.260;2023-01-19T21:02:14;15.88;;;6.28;;
32894;SDS011;19251;49.484;8.260;2023-01-19T21:07:17;10.70;;;6.60;;
32894;SDS011;19251;49.484;8.260;2023-01-19T21:12:19;8.88;;;5.60;;
32894;SDS011;19251;49.484;8.260;2023-01-19T21:17:23;12.45;;;6.55;;
32894;SDS011;19251;49.484;8.260;2023-01-19T21:22:25;13.13;;;7.43;;
32894;SDS011;19251;49.484;8.260;2023-01-19T21:27:27;11.40;;;6.90;;
32894;SDS011;19251;49.484;8.260;2023-01-19T21:32:30;9.20;;;6.45;;
32894;SDS011;19251;49.484;8.260;2023-01-19T21:37:32;8.07;;;6.10;;
32894;SDS011;19251;49.484;8.260;2023-01-19T21:42:34;12.98;;;6.20;;
32894;SDS011;19251;49.484;8.260;2023-01-19T21:47:37;10.80;;;5.60;;
32894;SDS011;19251;49.484;8.260;2023-01-19T21:52:39;16.65;;;7.47;;
32894;SDS011;19251;49.484;8.260;2023-01-19T21:57:41;15.33;;;6.10;;
32894;SDS011;19251;49.484;8.260;2023-01-19T22:08:04;12.00;;;6.93;;
32894;SDS011;19251;49.484;8.260;2023-01-19T22:13:07;11.67;;;6.20;;
32894;SDS011;19251;49.484;8.260;2023-01-19T22:18:10;14.83;;;7.77;;
32894;SDS011;19251;49.484;8.260;2023-01-19T22:23:12;15.60;;;7.80;;
32894;SDS011;19251;49.484;8.260;2023-01-19T22:28:14;17.10;;;8.63;;
32894;SDS011;19251;49.484;8.260;2023-01-19T22:38:19;17.47;;;8.13;;
32894;SDS011;19251;49.484;8.260;2023-01-19T22:43:21;15.13;;;8.57;;
32894;SDS011;19251;49.484;8.260;2023-01-19T22:48:23;17.55;;;7.90;;
32894;SDS011;19251;49.484;8.260;2023-01-19T22:53:25;14.00;;;7.57;;
32894;SDS011;19251;49.484;8.260;2023-01-19T22:58:27;14.37;;;8.03;;
32894;SDS011;19251;49.484;8.260;2023-01-19T23:03:30;14.43;;;7.90;;
32894;SDS011;19251;49.484;8.260;2023-01-19T23:08:32;15.98;;;8.35;;
32894;SDS011;19251;49.484;8.260;2023-01-19T23:13:35;10.67;;;7.03;;
32894;SDS011;19251;49.484;8.260;2023-01-19T23:18:38;15.70;;;8.30;;
32894;SDS011;19251;49.484;8.260;2023-01-19T23:23:41;12.93;;;8.27;;
32894;SDS011;19251;49.484;8.260;2023-01-19T23:28:44;18.07;;;9.73;;
32894;SDS011;19251;49.484;8.260;2023-01-19T23:33:47;14.23;;;8.70;;
32894;SDS011;19251;49.484;8.260;2023-01-19T23:38:54;13.97;;;8.10;;
32894;SDS011;19251;49.484;8.260;2023-01-19T23:44:01;15.80;;;8.00;;
32894;SDS011;19251;49.484;8.260;2023-01-19T23:49:04;16.10;;;8.45;;
32894;SDS011;19251;49.484;8.260;2023-01-19T23:54:06;14.80;;;7.70;;
32894;SDS011;19251;49.484;8.260;2023-01-19T23:59:09;13.73;;;6.32;;
